sensor_id;sensor_type;location;lat;lon;timestamp;pressure;altitude;pressure_sealevel;temperature;humidity
75157;BME280;63736;50.076;8.198;2023-02-02T00:01:23;99957.03;;;6.15;100.00
75157;BME280;63736;50.076;8.198;2023-02-02T00:03:49;99960.34;;;6.19;100.00
75157;BME280;63736;50.076;8.198;2023-02-02T00:06:25;99956.66;;;6.21;100.00
75157;BME280;63736;50.076;8.198;2023-02-02T00:08:51;99946.94;;;6.22;100.00
75157;BME280;63736;50.076;8.198;2023-02-02T00:11:17;99949.47;;;6.23;100.00
75157;BME280;63736;50.076;8.198;2023-02-02T00:13:43;99952.97;;;6.24;100.00
75157;BME280;63736;50.076;8.198;2023-02-02T00:18:54;99943.97;;;6.26;100.00
75157;BME280;63736;50.076;8.198;2023-02-02T00:21:20;99956.94;;;6.17;100.00
75157;BME280;63736;50.076;8.198;2023-02-02T00:23:45;99950.19;;;6.11;100.00
75157;BME280;63736;50.076;8.198;2023-02-02T00:26:11;99958.81;;;6.15;100.00
75157;BME280;63736;50.076;8.198;2023-02-02T00:28:36;99963.00;;;6.19;100.00
75157;BME280;63736;50.076;8.198;2023-02-02T00:31:02;99955.47;;;6.27;100.00
75157;BME280;63736;50.076;8.198;2023-02-02T00:33:27;99956.03;;;6.32;100.00
75157;BME280;63736;50.076;8.198;2023-02-02T00:35:52;99956.13;;;6.31;100.00
75157;BME280;63736;50.076;8.198;2023-02-02T00:38:18;99952.88;;;6.25;100.00
75157;BME280;63736;50.076;8.198;2023-02-02T00:40:43;99956.50;;;6.24;100.00
75157;BME280;63736;50.076;8.198;2023-02-02T00:43:09;99949.38;;;6.25;100.00
75157;BME280;63736;50.076;8.198;2023-02-02T00:45:35;99954.59;;;6.26;100.00
75157;BME280;63736;50.076;8.198;2023-02-02T00:48:01;99943.22;;;6.24;100.00
75157;BME280;63736;50.076;8.198;2023-02-02T00:50:26;99950.31;;;6.24;100.00
75157;BME280;63736;50.076;8.198;2023-02-02T00:52:51;99964.63;;;6.21;100.00
75157;BME280;63736;50.076;8.198;2023-02-02T00:55:17;99950.31;;;6.24;100.00
75157;BME280;63736;50.076;8.198;2023-02-02T00:57:43;99956.41;;;6.26;100.00
75157;BME280;63736;50.076;8.198;2023-02-02T01:00:12;99957.91;;;6.30;100.00
75157;BME280;63736;50.076;8.198;2023-02-02T01:02:38;99962.09;;;6.34;100.00
75157;BME280;63736;50.076;8.198;2023-02-02T01:05:03;99967.25;;;6.37;100.00
75157;BME280;63736;50.076;8.198;2023-02-02T01:07:29;99965.16;;;6.42;100.00
75157;BME280;63736;50.076;8.198;2023-02-02T01:09:55;99963.16;;;6.46;100.00
75157;BME280;63736;50.076;8.198;2023-02-02T01:12:20;99977.94;;;6.50;100.00
75157;BME280;63736;50.076;8.198;2023-02-02T01:14:45;99973.41;;;6.52;100.00
75157;BME280;63736;50.076;8.198;2023-02-02T01:17:11;99973.50;;;6.51;100.00
75157;BME280;63736;50.076;8.198;2023-02-02T01:19:37;99967.44;;;6.49;100.00
75157;BME280;63736;50.076;8.198;2023-02-02T01:22:02;99969.25;;;6.48;100.00
75157;BME280;63736;50.076;8.198;2023-02-02T01:24:27;99967.53;;;6.47;100.00
75157;BME280;63736;50.076;8.198;2023-02-02T01:26:53;99971.03;;;6.48;100.00
75157;BME280;63736;50.076;8.198;2023-02-02T01:29:18;99966.22;;;6.40;100.00
75157;BME280;63736;50.076;8.198;2023-02-02T01:31:43;99978.22;;;6.31;100.00
75157;BME280;63736;50.076;8.198;2023-02-02T01:34:09;99984.44;;;6.30;100.00
75157;BME280;63736;50.076;8.198;2023-02-02T01:36:34;99979.25;;;6.28;100.00
75157;BME280;63736;50.076;8.198;2023-02-02T01:38:59;99990.59;;;6.31;100.00
75157;BME280;63736;50.076;8.198;2023-02-02T01:41:25;99986.91;;;6.33;100.00
75157;BME280;63736;50.076;8.198;2023-02-02T01:43:54;99981.44;;;6.36;100.00
75157;BME280;63736;50.076;8.198;2023-02-02T01:46:31;99971.78;;;6.35;100.00
75157;BME280;63736;50.076;8.198;2023-02-02T01:49:15;99978.59;;;6.39;100.00
75157;BME280;63736;50.076;8.198;2023-02-02T01:51:54;99973.13;;;6.42;100.00
75157;BME280;63736;50.076;8.198;2023-02-02T01:54:24;99979.38;;;6.41;100.00
75157;BME280;63736;50.076;8.198;2023-02-02T01:56:58;99974.22;;;6.38;100.00
75157;BME280;63736;50.076;8.198;2023-02-02T01:59:25;99986.84;;;6.35;100.00
75157;BME280;63736;50.076;8.198;2023-02-02T02:01:52;99985.13;;;6.34;100.00
75157;BME280;63736;50.076;8.198;2023-02-02T02:04:19;99986.66;;;6.38;100.00
75157;BME280;63736;50.076;8.198;2023-02-02T02:06:45;99990.00;;;6.41;100.00
75157;BME280;63736;50.076;8.198;2023-02-02T02:09:12;99981.00;;;6.44;100.00
75157;BME280;63736;50.076;8.198;2023-02-02T02:11:37;99989.78;;;6.44;100.00
75157;BME280;63736;50.076;8.198;2023-02-02T02:14:07;99996.91;;;6.44;100.00
75157;BME280;63736;50.076;8.198;2023-02-02T02:17:17;99998.69;;;6.43;100.00
75157;BME280;63736;50.076;8.198;2023-02-02T02:38:13;99983.91;;;6.09;100.00
75157;BME280;63736;50.076;8.198;2023-02-02T02:40:52;99989.75;;;6.00;100.00
75157;BME280;63736;50.076;8.198;2023-02-02T02:43:46;99999.06;;;5.91;100.00
75157;BME280;63736;50.076;8.198;2023-02-02T02:46:13;99993.16;;;5.86;100.00
75157;BME280;63736;50.076;8.198;2023-02-02T02:48:43;99984.28;;;5.87;100.00
75157;BME280;63736;50.076;8.198;2023-02-02T02:51:41;99987.56;;;5.90;100.00
75157;BME280;63736;50.076;8.198;2023-02-02T02:54:08;100003.47;;;5.90;100.00
75157;BME280;63736;50.076;8.198;2023-02-02T02:59:33;100008.97;;;5.87;100.00
75157;BME280;63736;50.076;8.198;2023-02-02T03:05:07;99997.94;;;5.95;100.00
75157;BME280;63736;50.076;8.198;2023-02-02T03:08:02;100000.28;;;6.01;100.00
75157;BME280;63736;50.076;8.198;2023-02-02T03:10:29;99997.44;;;6.04;100.00
75157;BME280;63736;50.076;8.198;2023-02-02T03:12:55;99997.34;;;6.06;100.00
75157;BME280;63736;50.076;8.198;2023-02-02T03:15:22;100000.75;;;6.08;100.00
75157;BME280;63736;50.076;8.198;2023-02-02T03:17:49;99982.09;;;6.09;100.00
75157;BME280;63736;50.076;8.198;2023-02-02T03:20:16;99994.44;;;6.10;100.00
75157;BME280;63736;50.076;8.198;2023-02-02T03:22:41;99991.78;;;6.10;100.00
75157;BME280;63736;50.076;8.198;2023-02-02T03:25:07;99990.94;;;6.10;100.00
75157;BME280;63736;50.076;8.198;2023-02-02T03:27:38;99985.63;;;6.10;100.00
75157;BME280;63736;50.076;8.198;2023-02-02T03:30:11;99991.59;;;6.14;100.00
75157;BME280;63736;50.076;8.198;2023-02-02T03:32:38;99980.81;;;6.17;100.00
75157;BME280;63736;50.076;8.198;2023-02-02T03:35:04;99982.69;;;6.15;100.00
75157;BME280;63736;50.076;8.198;2023-02-02T03:37:29;99983.81;;;6.10;100.00
75157;BME280;63736;50.076;8.198;2023-02-02T03:39:54;99984.75;;;6.09;100.00
75157;BME280;63736;50.076;8.198;2023-02-02T03:42:20;99982.28;;;6.06;100.00
75157;BME280;63736;50.076;8.198;2023-02-02T03:44:45;99977.25;;;6.02;100.00
75157;BME280;63736;50.076;8.198;2023-02-02T03:47:10;99987.09;;;6.00;100.00
75157;BME280;63736;50.076;8.198;2023-02-02T03:49:35;99985.44;;;5.97;100.00
75157;BME280;63736;50.076;8.198;2023-02-02T03:52:01;99997.00;;;5.96;100.00
75157;BME280;63736;50.076;8.198;2023-02-02T03:54:29;99989.56;;;6.03;100.00
75157;BME280;63736;50.076;8.198;2023-02-02T03:56:54;99984.06;;;6.06;100.00
75157;BME280;63736;50.076;8.198;2023-02-02T03:59:19;99998.78;;;6.11;100.00
75157;BME280;63736;50.076;8.198;2023-02-02T04:01:44;99995.75;;;6.18;100.00
75157;BME280;63736;50.076;8.198;2023-02-02T04:04:10;99993.88;;;6.20;100.00
75157;BME280;63736;50.076;8.198;2023-02-02T04:06:35;99990.47;;;6.18;100.00
75157;BME280;63736;50.076;8.198;2023-02-02T04:09:00;99993.22;;;6.16;100.00
75157;BME280;63736;50.076;8.198;2023-02-02T04:11:25;99996.91;;;6.14;100.00
75157;BME280;63736;50.076;8.198;2023-02-02T04:13:51;100002.03;;;6.17;100.00
75157;BME280;63736;50.076;8.198;2023-02-02T04:16:16;99997.75;;;6.14;100.00
75157;BME280;63736;50.076;8.198;2023-02-02T04:18:41;100008.47;;;6.13;100.00
75157;BME280;63736;50.076;8.198;2023-02-02T04:21:07;99997.75;;;6.14;100.00
75157;BME280;63736;50.076;8.198;2023-02-02T04:23:33;99998.41;;;6.18;100.00
75157;BME280;63736;50.076;8.198;2023-02-02T04:25:58;100003.56;;;6.21;100.00
75157;BME280;63736;50.076;8.198;2023-02-02T04:28:25;100004.41;;;6.21;100.00
75157;BME280;63736;50.076;8.198;2023-02-02T04:30:52;100009.03;;;6.18;100.00
75157;BME280;63736;50.076;8.198;2023-02-02T04:33:18;100003.72;;;6.18;100.00
75157;BME280;63736;50.076;8.198;2023-02-02T04:35:43;100002.69;;;6.20;100.00
75157;BME280;63736;50.076;8.198;2023-02-02T04:38:09;100015.13;;;6.20;100.00
75157;BME280;63736;50.076;8.198;2023-02-02T04:40:37;100012.66;;;6.17;100.00
75157;BME280;63736;50.076;8.198;2023-02-02T04:43:03;100017.19;;;6.15;100.00
75157;BME280;63736;50.076;8.198;2023-02-02T04:45:29;100027.69;;;6.16;100.00
75157;BME280;63736;50.076;8.198;2023-02-02T04:47:54;100030.09;;;6.21;100.00
75157;BME280;63736;50.076;8.198;2023-02-02T04:50:19;100029.75;;;6.27;100.00
75157;BME280;63736;50.076;8.198;2023-02-02T04:52:45;100029.56;;;6.30;100.00
75157;BME280;63736;50.076;8.198;2023-02-02T04:55:10;100031.19;;;6.33;100.00
75157;BME280;63736;50.076;8.198;2023-02-02T04:57:35;100032.78;;;6.35;100.00
75157;BME280;63736;50.076;8.198;2023-02-02T05:00:00;100030.03;;;6.37;100.00
75157;BME280;63736;50.076;8.198;2023-02-02T05:02:26;100035.34;;;6.37;100.00
75157;BME280;63736;50.076;8.198;2023-02-02T05:04:51;100024.84;;;6.35;100.00
75157;BME280;63736;50.076;8.198;2023-02-02T05:07:16;100027.50;;;6.35;100.00
75157;BME280;63736;50.076;8.198;2023-02-02T05:09:41;100023.91;;;6.36;100.00
75157;BME280;63736;50.076;8.198;2023-02-02T05:12:07;100037.16;;;6.36;100.00
75157;BME280;63736;50.076;8.198;2023-02-02T05:14:32;100039.81;;;6.36;100.00
75157;BME280;63736;50.076;8.198;2023-02-02T05:16:57;100038.94;;;6.36;100.00
75157;BME280;63736;50.076;8.198;2023-02-02T05:19:23;100036.38;;;6.34;100.00
75157;BME280;63736;50.076;8.198;2023-02-02T05:21:48;100045.97;;;6.37;100.00
75157;BME280;63736;50.076;8.198;2023-02-02T05:24:14;100040.56;;;6.38;100.00
75157;BME280;63736;50.076;8.198;2023-02-02T05:26:39;100046.84;;;6.37;100.00
75157;BME280;63736;50.076;8.198;2023-02-02T05:29:04;100048.53;;;6.38;100.00
75157;BME280;63736;50.076;8.198;2023-02-02T05:31:31;100042.38;;;6.38;100.00
75157;BME280;63736;50.076;8.198;2023-02-02T05:33:56;100042.47;;;6.36;100.00
75157;BME280;63736;50.076;8.198;2023-02-02T05:36:22;100053.94;;;6.37;100.00
75157;BME280;63736;50.076;8.198;2023-02-02T05:38:47;100050.34;;;6.38;100.00
75157;BME280;63736;50.076;8.198;2023-02-02T05:41:12;100050.25;;;6.39;100.00
75157;BME280;63736;50.076;8.198;2023-02-02T05:43:38;100058.38;;;6.36;100.00
75157;BME280;63736;50.076;8.198;2023-02-02T05:46:03;100060.47;;;6.31;100.00
75157;BME280;63736;50.076;8.198;2023-02-02T05:48:29;100069.53;;;6.27;100.00
75157;BME280;63736;50.076;8.198;2023-02-02T05:51:04;100068.94;;;6.22;100.00
75157;BME280;63736;50.076;8.198;2023-02-02T05:53:31;100073.66;;;6.17;100.00
75157;BME280;63736;50.076;8.198;2023-02-02T05:55:56;100067.47;;;6.16;100.00
75157;BME280;63736;50.076;8.198;2023-02-02T05:58:22;100072.78;;;6.16;100.00
75157;BME280;63736;50.076;8.198;2023-02-02T06:00:47;100076.66;;;6.10;100.00
75157;BME280;63736;50.076;8.198;2023-02-02T06:03:13;100070.66;;;6.07;100.00
75157;BME280;63736;50.076;8.198;2023-02-02T06:05:38;100070.94;;;6.02;100.00
75157;BME280;63736;50.076;8.198;2023-02-02T06:08:04;100071.00;;;6.01;100.00
75157;BME280;63736;50.076;8.198;2023-02-02T06:10:29;100076.41;;;5.99;100.00
75157;BME280;63736;50.076;8.198;2023-02-02T06:12:56;100079.97;;;5.98;100.00
75157;BME280;63736;50.076;8.198;2023-02-02T06:15:21;100089.72;;;5.98;100.00
75157;BME280;63736;50.076;8.198;2023-02-02T06:17:47;100080.22;;;5.93;100.00
75157;BME280;63736;50.076;8.198;2023-02-02T06:20:12;100077.38;;;5.96;100.00
75157;BME280;63736;50.076;8.198;2023-02-02T06:22:37;100088.00;;;5.96;100.00
75157;BME280;63736;50.076;8.198;2023-02-02T06:25:03;100087.25;;;5.94;100.00
75157;BME280;63736;50.076;8.198;2023-02-02T06:27:30;100094.22;;;5.95;100.00
75157;BME280;63736;50.076;8.198;2023-02-02T06:29:55;100076.63;;;5.94;100.00
75157;BME280;63736;50.076;8.198;2023-02-02T06:32:20;100079.28;;;5.94;100.00
75157;BME280;63736;50.076;8.198;2023-02-02T06:34:46;100086.22;;;5.97;100.00
75157;BME280;63736;50.076;8.198;2023-02-02T06:37:11;100086.22;;;5.97;100.00
75157;BME280;63736;50.076;8.198;2023-02-02T06:39:36;100084.25;;;6.01;100.00
75157;BME280;63736;50.076;8.198;2023-02-02T06:42:01;100093.00;;;6.03;100.00
75157;BME280;63736;50.076;8.198;2023-02-02T06:44:27;100078.91;;;6.02;100.00
75157;BME280;63736;50.076;8.198;2023-02-02T06:46:53;100068.28;;;6.02;100.00
75157;BME280;63736;50.076;8.198;2023-02-02T06:49:18;100084.09;;;6.04;100.00
75157;BME280;63736;50.076;8.198;2023-02-02T06:51:46;100102.34;;;6.10;100.00
75157;BME280;63736;50.076;8.198;2023-02-02T06:54:12;100081.13;;;6.10;100.00
75157;BME280;63736;50.076;8.198;2023-02-02T06:56:37;100087.16;;;6.12;100.00
75157;BME280;63736;50.076;8.198;2023-02-02T06:59:02;100096.66;;;6.16;100.00
75157;BME280;63736;50.076;8.198;2023-02-02T07:01:28;100088.78;;;6.15;100.00
75157;BME280;63736;50.076;8.198;2023-02-02T07:03:53;100092.13;;;6.18;100.00
75157;BME280;63736;50.076;8.198;2023-02-02T07:06:21;100093.75;;;6.21;100.00
75157;BME280;63736;50.076;8.198;2023-02-02T07:08:48;100103.34;;;6.23;100.00
75157;BME280;63736;50.076;8.198;2023-02-02T07:11:15;100099.56;;;6.27;100.00
75157;BME280;63736;50.076;8.198;2023-02-02T07:13:40;100091.50;;;6.29;100.00
75157;BME280;63736;50.076;8.198;2023-02-02T07:16:06;100101.88;;;6.34;100.00
75157;BME280;63736;50.076;8.198;2023-02-02T07:18:33;100097.31;;;6.36;100.00
75157;BME280;63736;50.076;8.198;2023-02-02T07:21:01;100099.91;;;6.37;100.00
75157;BME280;63736;50.076;8.198;2023-02-02T07:23:27;100100.84;;;6.36;100.00
75157;BME280;63736;50.076;8.198;2023-02-02T07:26:07;100111.56;;;6.35;100.00
75157;BME280;63736;50.076;8.198;2023-02-02T07:28:32;100116.06;;;6.33;100.00
75157;BME280;63736;50.076;8.198;2023-02-02T07:30:58;100109.94;;;6.32;100.00
75157;BME280;63736;50.076;8.198;2023-02-02T07:33:24;100118.63;;;6.34;100.00
75157;BME280;63736;50.076;8.198;2023-02-02T07:35:49;100125.41;;;6.40;100.00
75157;BME280;63736;50.076;8.198;2023-02-02T07:38:14;100127.88;;;6.43;100.00
75157;BME280;63736;50.076;8.198;2023-02-02T07:40:40;100128.56;;;6.47;100.00
75157;BME280;63736;50.076;8.198;2023-02-02T07:43:05;100129.41;;;6.47;100.00
75157;BME280;63736;50.076;8.198;2023-02-02T07:45:31;100123.91;;;6.50;100.00
75157;BME280;63736;50.076;8.198;2023-02-02T07:47:59;100121.94;;;6.54;100.00
75157;BME280;63736;50.076;8.198;2023-02-02T07:50:25;100129.91;;;6.54;100.00
75157;BME280;63736;50.076;8.198;2023-02-02T07:52:52;100121.09;;;6.53;100.00
75157;BME280;63736;50.076;8.198;2023-02-02T07:55:18;100117.56;;;6.53;100.00
75157;BME280;63736;50.076;8.198;2023-02-02T07:57:43;100119.28;;;6.54;100.00
75157;BME280;63736;50.076;8.198;2023-02-02T08:00:09;100116.53;;;6.55;100.00
75157;BME280;63736;50.076;8.198;2023-02-02T08:02:34;100113.88;;;6.55;100.00
75157;BME280;63736;50.076;8.198;2023-02-02T08:05:00;100113.16;;;6.53;100.00
75157;BME280;63736;50.076;8.198;2023-02-02T08:07:25;100110.50;;;6.53;100.00
75157;BME280;63736;50.076;8.198;2023-02-02T08:09:50;100111.34;;;6.54;100.00
75157;BME280;63736;50.076;8.198;2023-02-02T08:12:17;100125.38;;;6.56;100.00
75157;BME280;63736;50.076;8.198;2023-02-02T08:14:42;100121.78;;;6.57;100.00
75157;BME280;63736;50.076;8.198;2023-02-02T08:17:07;100128.03;;;6.56;100.00
75157;BME280;63736;50.076;8.198;2023-02-02T08:19:32;100130.50;;;6.59;100.00
75157;BME280;63736;50.076;8.198;2023-02-02T08:21:58;100127.09;;;6.57;100.00
75157;BME280;63736;50.076;8.198;2023-02-02T08:24:23;100130.69;;;6.56;100.00
75157;BME280;63736;50.076;8.198;2023-02-02T08:26:48;100136.41;;;6.64;100.00
75157;BME280;63736;50.076;8.198;2023-02-02T08:29:13;100131.09;;;6.64;100.00
75157;BME280;63736;50.076;8.198;2023-02-02T08:31:42;100136.41;;;6.64;100.00
75157;BME280;63736;50.076;8.198;2023-02-02T08:34:09;100142.41;;;6.68;100.00
75157;BME280;63736;50.076;8.198;2023-02-02T08:36:35;100140.44;;;6.71;100.00
75157;BME280;63736;50.076;8.198;2023-02-02T08:39:06;100130.41;;;6.76;100.00
75157;BME280;63736;50.076;8.198;2023-02-02T08:41:32;100125.56;;;6.83;100.00
75157;BME280;63736;50.076;8.198;2023-02-02T08:43:57;100129.66;;;6.89;100.00
75157;BME280;63736;50.076;8.198;2023-02-02T08:46:23;100131.13;;;6.94;100.00
75157;BME280;63736;50.076;8.198;2023-02-02T08:48:49;100127.03;;;7.03;100.00
75157;BME280;63736;50.076;8.198;2023-02-02T08:51:16;100126.41;;;7.14;100.00
75157;BME280;63736;50.076;8.198;2023-02-02T08:53:43;100126.03;;;7.20;100.00
75157;BME280;63736;50.076;8.198;2023-02-02T08:56:19;100134.78;;;7.22;100.00
75157;BME280;63736;50.076;8.198;2023-02-02T08:58:50;100121.59;;;7.21;100.00
75157;BME280;63736;50.076;8.198;2023-02-02T09:01:22;100125.28;;;7.33;100.00
75157;BME280;63736;50.076;8.198;2023-02-02T09:03:53;100119.63;;;7.53;100.00
75157;BME280;63736;50.076;8.198;2023-02-02T09:06:19;100135.38;;;7.71;100.00
75157;BME280;63736;50.076;8.198;2023-02-02T09:08:45;100134.13;;;7.91;100.00
75157;BME280;63736;50.076;8.198;2023-02-02T09:11:13;100138.66;;;8.03;100.00
75157;BME280;63736;50.076;8.198;2023-02-02T09:13:41;100128.41;;;8.12;100.00
75157;BME280;63736;50.076;8.198;2023-02-02T09:16:09;100127.13;;;8.17;100.00
75157;BME280;63736;50.076;8.198;2023-02-02T09:18:35;100133.75;;;8.24;100.00
75157;BME280;63736;50.076;8.198;2023-02-02T09:21:03;100123.28;;;8.36;100.00
75157;BME280;63736;50.076;8.198;2023-02-02T09:23:30;100143.22;;;8.43;100.00
75157;BME280;63736;50.076;8.198;2023-02-02T09:25:56;100138.97;;;8.40;100.00
75157;BME280;63736;50.076;8.198;2023-02-02T09:28:21;100138.00;;;8.41;100.00
75157;BME280;63736;50.076;8.198;2023-02-02T09:30:47;100151.13;;;8.44;100.00
75157;BME280;63736;50.076;8.198;2023-02-02T09:33:12;100154.25;;;8.51;100.00
75157;BME280;63736;50.076;8.198;2023-02-02T09:35:37;100145.22;;;8.54;100.00
75157;BME280;63736;50.076;8.198;2023-02-02T09:38:02;100168.22;;;8.55;100.00
75157;BME280;63736;50.076;8.198;2023-02-02T09:40:31;100154.59;;;8.59;100.00
75157;BME280;63736;50.076;8.198;2023-02-02T09:43:28;100155.25;;;8.63;100.00
75157;BME280;63736;50.076;8.198;2023-02-02T09:49:00;100169.13;;;8.68;100.00
75157;BME280;63736;50.076;8.198;2023-02-02T09:51:31;100159.25;;;8.70;100.00
75157;BME280;63736;50.076;8.198;2023-02-02T09:54:20;100187.22;;;8.63;100.00
75157;BME280;63736;50.076;8.198;2023-02-02T09:56:48;100178.88;;;8.55;100.00
75157;BME280;63736;50.076;8.198;2023-02-02T09:59:22;100185.53;;;8.48;100.00
75157;BME280;63736;50.076;8.198;2023-02-02T10:01:52;100207.31;;;8.40;100.00
75157;BME280;63736;50.076;8.198;2023-02-02T10:04:33;100206.28;;;8.28;100.00
75157;BME280;63736;50.076;8.198;2023-02-02T10:07:06;100217.41;;;8.20;100.00
75157;BME280;63736;50.076;8.198;2023-02-02T10:09:46;100220.47;;;8.14;100.00
75157;BME280;63736;50.076;8.198;2023-02-02T10:12:28;100229.78;;;8.07;100.00
75157;BME280;63736;50.076;8.198;2023-02-02T10:15:25;100217.44;;;8.06;100.00
75157;BME280;63736;50.076;8.198;2023-02-02T10:18:12;100215.81;;;8.03;100.00
75157;BME280;63736;50.076;8.198;2023-02-02T10:20:43;100224.00;;;8.00;100.00
75157;BME280;63736;50.076;8.198;2023-02-02T10:23:26;100218.00;;;7.97;100.00
75157;BME280;63736;50.076;8.198;2023-02-02T10:26:00;100229.50;;;7.97;100.00
75157;BME280;63736;50.076;8.198;2023-02-02T10:31:35;100225.78;;;8.00;100.00
75157;BME280;63736;50.076;8.198;2023-02-02T10:34:16;100231.03;;;8.01;100.00
75157;BME280;63736;50.076;8.198;2023-02-02T10:37:01;100223.06;;;8.01;100.00
75157;BME280;63736;50.076;8.198;2023-02-02T10:42:26;100219.88;;;7.94;100.00
75157;BME280;63736;50.076;8.198;2023-02-02T10:44:59;100227.81;;;7.96;100.00
75157;BME280;63736;50.076;8.198;2023-02-02T10:47:31;100234.34;;;8.05;100.00
75157;BME280;63736;50.076;8.198;2023-02-02T10:50:13;100220.66;;;8.11;100.00
75157;BME280;63736;50.076;8.198;2023-02-02T10:52:45;100215.72;;;8.19;100.00
75157;BME280;63736;50.076;8.198;2023-02-02T10:55:30;100222.34;;;8.26;100.00
75157;BME280;63736;50.076;8.198;2023-02-02T11:00:51;100220.22;;;8.60;100.00
75157;BME280;63736;50.076;8.198;2023-02-02T11:03:20;100213.06;;;8.75;100.00
75157;BME280;63736;50.076;8.198;2023-02-02T11:05:46;100222.16;;;8.86;100.00
75157;BME280;63736;50.076;8.198;2023-02-02T11:08:38;100228.16;;;9.02;100.00
75157;BME280;63736;50.076;8.198;2023-02-02T11:11:16;100225.44;;;9.17;100.00
75157;BME280;63736;50.076;8.198;2023-02-02T11:16:30;100237.75;;;9.32;100.00
75157;BME280;63736;50.076;8.198;2023-02-02T11:18:57;100209.81;;;9.25;100.00
75157;BME280;63736;50.076;8.198;2023-02-02T11:21:28;100234.75;;;9.24;100.00
75157;BME280;63736;50.076;8.198;2023-02-02T11:23:59;100228.66;;;9.22;100.00
75157;BME280;63736;50.076;8.198;2023-02-02T11:26:26;100225.03;;;9.23;100.00
75157;BME280;63736;50.076;8.198;2023-02-02T11:28:55;100231.03;;;9.26;100.00
75157;BME280;63736;50.076;8.198;2023-02-02T11:31:35;100227.63;;;9.37;100.00
75157;BME280;63736;50.076;8.198;2023-02-02T11:34:15;100246.09;;;9.40;100.00
75157;BME280;63736;50.076;8.198;2023-02-02T11:39:38;100231.88;;;9.27;100.00
75157;BME280;63736;50.076;8.198;2023-02-02T11:42:21;100226.59;;;9.13;100.00
75157;BME280;63736;50.076;8.198;2023-02-02T11:44:49;100232.56;;;9.03;100.00
75157;BME280;63736;50.076;8.198;2023-02-02T11:47:27;100239.34;;;8.95;100.00
75157;BME280;63736;50.076;8.198;2023-02-02T11:49:56;100229.09;;;8.88;100.00
75157;BME280;63736;50.076;8.198;2023-02-02T11:52:25;100239.75;;;8.88;100.00
75157;BME280;63736;50.076;8.198;2023-02-02T11:54:56;100244.09;;;8.89;100.00
75157;BME280;63736;50.076;8.198;2023-02-02T11:57:24;100245.13;;;9.01;100.00
75157;BME280;63736;50.076;8.198;2023-02-02T12:00:05;100227.56;;;9.12;100.00
75157;BME280;63736;50.076;8.198;2023-02-02T12:02:32;100228.97;;;9.17;100.00
75157;BME280;63736;50.076;8.198;2023-02-02T12:05:31;100240.28;;;9.21;100.00
75157;BME280;63736;50.076;8.198;2023-02-02T12:07:58;100234.84;;;9.22;100.00
75157;BME280;63736;50.076;8.198;2023-02-02T12:10:25;100226.53;;;9.27;100.00
75157;BME280;63736;50.076;8.198;2023-02-02T12:13:08;100220.50;;;9.38;100.00
75157;BME280;63736;50.076;8.198;2023-02-02T12:27:26;100237.47;;;9.63;100.00
75157;BME280;63736;50.076;8.198;2023-02-02T12:33:12;100232.56;;;9.56;100.00
75157;BME280;63736;50.076;8.198;2023-02-02T12:35:54;100232.78;;;9.53;100.00
75157;BME280;63736;50.076;8.198;2023-02-02T12:46:51;100239.66;;;9.30;100.00
75157;BME280;63736;50.076;8.198;2023-02-02T12:52:15;100240.22;;;9.35;100.00
75157;BME280;63736;50.076;8.198;2023-02-02T12:58:00;100253.22;;;9.40;100.00
75157;BME280;63736;50.076;8.198;2023-02-02T13:06:27;100254.47;;;9.21;100.00
75157;BME280;63736;50.076;8.198;2023-02-02T13:09:13;100247.53;;;9.19;100.00
75157;BME280;63736;50.076;8.198;2023-02-02T13:11:45;100247.53;;;9.19;100.00
75157;BME280;63736;50.076;8.198;2023-02-02T13:14:37;100256.47;;;9.18;100.00
75157;BME280;63736;50.076;8.198;2023-02-02T13:17:14;100248.28;;;9.21;100.00
75157;BME280;63736;50.076;8.198;2023-02-02T13:19:46;100251.91;;;9.20;100.00
75157;BME280;63736;50.076;8.198;2023-02-02T13:22:21;100264.34;;;9.19;100.00
75157;BME280;63736;50.076;8.198;2023-02-02T13:24:49;100264.28;;;9.21;100.00
75157;BME280;63736;50.076;8.198;2023-02-02T13:27:19;100263.41;;;9.20;100.00
75157;BME280;63736;50.076;8.198;2023-02-02T13:30:04;100262.25;;;9.24;100.00
75157;BME280;63736;50.076;8.198;2023-02-02T13:32:40;100260.13;;;9.30;100.00
75157;BME280;63736;50.076;8.198;2023-02-02T13:35:19;100264.00;;;9.38;100.00
75157;BME280;63736;50.076;8.198;2023-02-02T13:38:03;100269.59;;;9.48;100.00
75157;BME280;63736;50.076;8.198;2023-02-02T13:40:36;100265.63;;;9.54;100.00
75157;BME280;63736;50.076;8.198;2023-02-02T13:45:44;100258.47;;;9.54;100.00
75157;BME280;63736;50.076;8.198;2023-02-02T13:59:53;100271.66;;;9.83;100.00
75157;BME280;63736;50.076;8.198;2023-02-02T14:02:31;100260.97;;;9.83;100.00
75157;BME280;63736;50.076;8.198;2023-02-02T14:05:00;100270.78;;;9.83;100.00
75157;BME280;63736;50.076;8.198;2023-02-02T14:07:47;100275.28;;;9.82;100.00
75157;BME280;63736;50.076;8.198;2023-02-02T14:10:32;100277.28;;;9.79;100.00
75157;BME280;63736;50.076;8.198;2023-02-02T14:13:12;100281.25;;;9.73;100.00
75157;BME280;63736;50.076;8.198;2023-02-02T14:16:01;100279.66;;;9.70;100.00
75157;BME280;63736;50.076;8.198;2023-02-02T14:26:57;100305.22;;;9.60;100.00
75157;BME280;63736;50.076;8.198;2023-02-02T14:31:59;100316.53;;;9.51;100.00
75157;BME280;63736;50.076;8.198;2023-02-02T14:39:25;100312.75;;;9.40;100.00
75157;BME280;63736;50.076;8.198;2023-02-02T14:42:03;100321.03;;;9.36;100.00
75157;BME280;63736;50.076;8.198;2023-02-02T14:53:19;100353.00;;;9.23;100.00
75157;BME280;63736;50.076;8.198;2023-02-02T14:56:07;100360.44;;;9.18;100.00
75157;BME280;63736;50.076;8.198;2023-02-02T15:03:46;100361.50;;;9.01;100.00
75157;BME280;63736;50.076;8.198;2023-02-02T15:14:24;100367.06;;;8.83;100.00
75157;BME280;63736;50.076;8.198;2023-02-02T15:16:51;100361.81;;;8.82;100.00